Time;durP1;ratioP1;P1;durP2;ratioP2;P2;SDS_P1;SDS_P2;PMS_P1;PMS_P2;Temp;Humidity;BMP_temperature;BMP_pressure;BME280_temperature;BME280_humidity;BME280_pressure;Samples;Min_cycle;Max_cycle;Signal;HPM_P1;HPM_P2
2022/02/14 00:02:26;;;;;;;3.20;3.10;;;4.10;99.90;;;;;;6264898;28;20326;-72
2022/02/14 00:05:33;;;;;;;3.30;3.00;;;4.10;99.90;;;;;;6265422;28;20279;-73
2022/02/14 00:08:38;;;;;;;3.20;3.10;;;4.10;99.90;;;;;;6264545;28;20298;-73
2022/02/14 00:11:44;;;;;;;3.23;3.10;;;4.10;99.90;;;;;;6284155;28;20554;-72
2022/02/14 00:14:50;;;;;;;3.17;3.07;;;4.10;99.90;;;;;;6288625;28;20595;-72
2022/02/14 00:17:56;;;;;;;3.20;3.07;;;4.10;99.90;;;;;;6289543;28;20299;-72
2022/02/14 00:21:02;;;;;;;3.00;3.00;;;4.20;99.90;;;;;;6290039;28;20298;-72
2022/02/14 00:24:09;;;;;;;2.93;2.90;;;4.10;99.90;;;;;;6271357;28;20587;-72
2022/02/14 00:27:17;;;;;;;3.23;3.13;;;4.10;99.90;;;;;;6288439;28;20306;-73
2022/02/14 00:30:23;;;;;;;3.30;3.20;;;4.20;99.90;;;;;;6289692;28;20274;-73
2022/02/14 00:33:29;;;;;;;3.80;3.60;;;4.20;99.90;;;;;;6288913;28;20303;-73
2022/02/14 00:36:35;;;;;;;4.00;3.80;;;4.20;99.90;;;;;;6288671;28;20293;-72
2022/02/14 00:39:40;;;;;;;3.53;3.43;;;4.20;99.90;;;;;;6288219;28;20471;-72
2022/02/14 00:42:47;;;;;;;4.10;3.80;;;4.20;99.90;;;;;;6288601;28;20297;-72
2022/02/14 00:45:52;;;;;;;3.90;3.77;;;4.10;99.90;;;;;;6288145;28;20274;-73
2022/02/14 00:48:57;;;;;;;4.37;4.10;;;4.10;99.90;;;;;;6288425;28;20302;-72
2022/02/14 00:52:03;;;;;;;4.30;4.00;;;4.10;99.90;;;;;;6288864;28;20292;-73
2022/02/14 00:55:11;;;;;;;4.70;4.40;;;4.10;99.90;;;;;;6288770;28;20573;-72
2022/02/14 00:58:18;;;;;;;3.93;3.77;;;4.10;99.90;;;;;;6287705;28;20298;-73
2022/02/14 01:01:23;;;;;;;4.57;4.30;;;4.10;99.90;;;;;;6288027;28;20440;-73
2022/02/14 01:04:29;;;;;;;4.90;4.60;;;4.00;99.90;;;;;;6288692;28;20294;-72
2022/02/14 01:07:34;;;;;;;3.90;3.80;;;4.10;99.90;;;;;;6288081;28;20306;-72
2022/02/14 01:10:40;;;;;;;4.10;3.90;;;4.10;99.90;;;;;;6288678;28;20295;-73
2022/02/14 01:13:46;;;;;;;4.60;4.20;;;4.00;99.90;;;;;;6288118;28;20298;-72
2022/02/14 01:16:56;;;;;;;4.70;4.40;;;4.00;99.90;;;;;;6288486;28;20289;-72
2022/02/14 01:20:01;;;;;;;4.50;4.30;;;4.00;99.90;;;;;;6286918;28;20277;-73
2022/02/14 01:23:07;;;;;;;4.77;4.47;;;4.00;99.90;;;;;;6287187;28;20301;-73
2022/02/14 01:26:12;;;;;;;4.57;4.27;;;4.00;99.90;;;;;;6271048;28;20282;-73
2022/02/14 01:29:20;;;;;;;4.77;4.47;;;3.90;99.90;;;;;;6287288;28;20297;-73
2022/02/14 01:32:26;;;;;;;5.20;4.80;;;3.90;99.90;;;;;;6287233;28;20614;-73
2022/02/14 01:35:33;;;;;;;4.90;4.70;;;3.90;99.90;;;;;;6287223;28;20317;-72
2022/02/14 01:38:38;;;;;;;4.73;4.33;;;3.90;99.90;;;;;;6286618;28;20585;-72
2022/02/14 01:41:44;;;;;;;4.63;4.40;;;3.80;99.90;;;;;;6287963;28;20274;-73
2022/02/14 01:44:52;;;;;;;5.20;4.80;;;3.80;99.90;;;;;;6287646;28;20303;-73
2022/02/14 01:47:57;;;;;;;4.73;4.53;;;3.80;99.90;;;;;;6286513;28;20301;-73
2022/02/14 01:51:03;;;;;;;4.80;4.60;;;3.80;99.90;;;;;;6286604;28;20454;-72
2022/02/14 01:54:09;;;;;;;5.03;4.77;;;3.80;99.90;;;;;;6286623;28;20301;-72
2022/02/14 01:57:18;;;;;;;4.90;4.60;;;3.70;99.90;;;;;;6278456;28;20481;-72
2022/02/14 02:00:25;;;;;;;4.80;4.50;;;3.70;99.90;;;;;;6287947;28;20305;-72
2022/02/14 02:03:31;;;;;;;5.20;5.00;;;3.70;99.90;;;;;;6286657;28;20294;-73
2022/02/14 02:06:36;;;;;;;4.93;4.73;;;3.70;99.90;;;;;;6287014;28;20282;-72
2022/02/14 02:09:44;;;;;;;5.10;4.87;;;3.70;99.90;;;;;;6286062;28;20303;-72
2022/02/14 02:12:52;;;;;;;5.23;4.90;;;3.70;99.90;;;;;;6286821;28;20468;-72
2022/02/14 02:15:59;;;;;;;5.17;4.77;;;3.70;99.90;;;;;;6286426;28;20434;-72
2022/02/14 02:19:05;;;;;;;5.33;4.93;;;3.60;99.90;;;;;;6286399;28;20469;-72
2022/02/14 02:22:11;;;;;;;5.63;5.13;;;3.60;99.90;;;;;;6285680;28;20298;-73
2022/02/14 02:25:20;;;;;;;5.30;5.00;;;3.60;99.90;;;;;;6287267;28;20222;-72
2022/02/14 02:28:26;;;;;;;4.70;4.37;;;3.60;99.90;;;;;;6286472;28;20302;-73
2022/02/14 02:31:31;;;;;;;5.43;5.07;;;3.60;99.90;;;;;;6286611;28;20547;-72
2022/02/14 02:34:38;;;;;;;5.40;5.00;;;3.60;99.90;;;;;;6286193;28;20598;-72
2022/02/14 02:37:44;;;;;;;5.10;4.70;;;3.60;99.90;;;;;;6285782;28;20301;-72
2022/02/14 02:40:50;;;;;;;5.77;5.37;;;3.60;99.90;;;;;;6286419;28;20446;-72
2022/02/14 02:43:55;;;;;;;5.60;5.10;;;3.60;99.90;;;;;;6285801;28;20297;-72
2022/02/14 02:47:01;;;;;;;5.70;5.20;;;3.60;99.90;;;;;;6286046;28;20278;-72
2022/02/14 02:50:07;;;;;;;5.57;5.07;;;3.60;99.90;;;;;;6285785;28;20382;-72
2022/02/14 02:53:13;;;;;;;4.93;4.63;;;3.60;99.90;;;;;;6286129;28;20299;-72
2022/02/14 02:56:21;;;;;;;8.03;5.47;;;3.60;99.90;;;;;;6286515;28;20274;-72
2022/02/14 02:59:29;;;;;;;5.57;5.17;;;3.60;99.90;;;;;;6286083;28;20298;-72
2022/02/14 03:02:34;;;;;;;6.23;5.40;;;3.60;99.90;;;;;;6285716;28;20294;-72
2022/02/14 03:05:39;;;;;;;5.77;5.37;;;3.60;99.90;;;;;;6285639;28;20274;-72
2022/02/14 03:08:45;;;;;;;5.30;4.90;;;3.60;99.90;;;;;;6289927;28;20465;-73
2022/02/14 03:11:53;;;;;;;5.40;5.00;;;3.60;99.90;;;;;;6291074;28;20439;-72
2022/02/14 03:14:58;;;;;;;5.10;4.80;;;3.50;99.90;;;;;;6290632;28;20404;-73
2022/02/14 03:18:03;;;;;;;4.90;4.63;;;3.50;99.90;;;;;;6290842;28;20301;-72
2022/02/14 03:21:13;;;;;;;7.47;5.30;;;3.50;99.90;;;;;;6291061;28;20592;-72
2022/02/14 03:24:19;;;;;;;5.60;5.20;;;3.50;99.90;;;;;;6290136;28;20302;-72
2022/02/14 03:27:25;;;;;;;5.40;5.10;;;3.50;99.90;;;;;;6290908;28;20301;-73
2022/02/14 03:30:31;;;;;;;7.30;5.63;;;3.40;99.90;;;;;;6291035;28;20271;-72
2022/02/14 03:33:36;;;;;;;5.80;5.33;;;3.40;99.90;;;;;;6289924;28;20297;-72
2022/02/14 03:36:42;;;;;;;5.50;5.10;;;3.50;99.90;;;;;;6290679;28;20293;-72
2022/02/14 03:39:47;;;;;;;6.00;5.50;;;3.50;99.90;;;;;;6290453;28;20298;-72
2022/02/14 03:42:54;;;;;;;5.80;5.40;;;3.50;99.90;;;;;;6289712;28;20302;-72
2022/02/14 03:46:00;;;;;;;6.73;6.13;;;3.50;99.90;;;;;;6291136;28;20271;-72
2022/02/14 03:49:05;;;;;;;6.90;6.30;;;3.40;99.90;;;;;;6290206;28;20295;-72
2022/02/14 03:52:14;;;;;;;6.20;5.70;;;3.50;99.90;;;;;;6290292;28;20273;-73
2022/02/14 03:55:20;;;;;;;6.63;6.03;;;3.40;99.90;;;;;;6290342;28;20442;-72
2022/02/14 03:58:26;;;;;;;6.97;6.27;;;3.40;99.90;;;;;;6289965;28;20299;-72
2022/02/14 04:01:31;;;;;;;6.77;6.10;;;3.40;99.90;;;;;;6288724;28;20275;-73
2022/02/14 04:04:36;;;;;;;7.13;6.40;;;3.50;99.90;;;;;;6288974;28;20471;-72
2022/02/14 04:07:42;;;;;;;7.67;6.33;;;3.50;99.90;;;;;;6289602;28;20302;-72
2022/02/14 04:10:47;;;;;;;8.20;7.20;;;3.50;99.90;;;;;;6289742;28;20570;-72
2022/02/14 04:13:54;;;;;;;8.80;7.10;;;3.50;99.90;;;;;;6289388;28;20302;-72
2022/02/14 04:16:59;;;;;;;9.50;7.27;;;3.40;99.90;;;;;;6288618;28;20278;-73
2022/02/14 04:20:07;;;;;;;8.13;7.33;;;3.40;99.90;;;;;;6288498;28;20423;-72
2022/02/14 04:23:15;;;;;;;9.37;7.07;;;3.40;99.90;;;;;;6288958;28;20306;-72
2022/02/14 04:26:21;;;;;;;9.30;7.23;;;3.40;99.90;;;;;;6289921;28;20273;-73
2022/02/14 04:29:27;;;;;;;8.47;6.97;;;3.40;99.90;;;;;;6289503;28;20306;-72
2022/02/14 04:32:33;;;;;;;8.33;7.00;;;3.40;99.90;;;;;;6289233;28;20297;-72
2022/02/14 04:35:39;;;;;;;13.47;6.90;;;3.40;99.90;;;;;;6289564;28;20263;-73
2022/02/14 04:38:44;;;;;;;10.23;6.70;;;3.40;99.90;;;;;;6288253;28;20490;-73
2022/02/14 04:41:49;;;;;;;11.37;6.80;;;3.40;99.90;;;;;;6288702;28;20270;-73
2022/02/14 04:44:56;;;;;;;8.77;6.17;;;3.40;99.90;;;;;;6289065;28;20301;-72
2022/02/14 04:48:01;;;;;;;11.70;6.30;;;3.40;99.90;;;;;;6288215;28;20468;-72
2022/02/14 04:51:07;;;;;;;8.37;6.63;;;3.40;99.90;;;;;;6288784;28;20278;-72
2022/02/14 04:54:14;;;;;;;7.03;6.27;;;3.40;99.90;;;;;;6288643;28;20294;-72
2022/02/14 04:57:19;;;;;;;8.53;6.27;;;3.40;99.90;;;;;;6287656;28;20303;-72
2022/02/14 05:00:26;;;;;;;7.10;6.40;;;3.40;99.90;;;;;;6288438;28;20293;-72
2022/02/14 05:03:32;;;;;;;9.60;6.47;;;3.40;99.90;;;;;;6287576;28;20294;-72
2022/02/14 05:06:37;;;;;;;6.37;5.87;;;3.40;99.90;;;;;;6287867;28;20318;-72
2022/02/14 05:09:42;;;;;;;7.07;6.27;;;3.40;99.90;;;;;;6270246;28;20307;-72
2022/02/14 05:12:48;;;;;;;7.93;6.50;;;3.40;99.90;;;;;;6288319;28;20297;-72
2022/02/14 05:15:54;;;;;;;7.43;6.50;;;3.30;99.90;;;;;;6288786;28;20271;-72
2022/02/14 05:19:00;;;;;;;6.90;6.30;;;3.30;99.90;;;;;;6287990;28;20302;-72
2022/02/14 05:22:06;;;;;;;8.20;6.87;;;3.40;99.90;;;;;;6287889;28;20301;-74
2022/02/14 05:25:11;;;;;;;9.30;6.53;;;3.40;99.90;;;;;;6287559;28;20271;-72
2022/02/14 05:28:21;;;;;;;9.57;6.57;;;3.30;99.90;;;;;;6287841;28;20287;-72
2022/02/14 05:31:29;;;;;;;11.27;7.03;;;3.30;99.90;;;;;;6288032;28;20440;-73
2022/02/14 05:34:35;;;;;;;7.30;6.53;;;3.30;99.90;;;;;;6287859;28;20582;-72
2022/02/14 05:37:41;;;;;;;7.97;6.70;;;3.40;99.90;;;;;;6286912;28;20297;-72
2022/02/14 05:40:46;;;;;;;7.23;6.53;;;3.40;99.90;;;;;;6287758;28;20293;-72
2022/02/14 05:43:51;;;;;;;8.77;6.43;;;3.40;99.90;;;;;;6287073;28;20297;-72
2022/02/14 05:46:58;;;;;;;8.53;6.80;;;3.30;99.90;;;;;;6286707;28;20269;-73
2022/02/14 05:50:05;;;;;;;8.20;6.67;;;3.30;99.90;;;;;;6287200;28;20273;-72
2022/02/14 05:53:11;;;;;;;8.50;6.53;;;3.30;99.90;;;;;;6286582;28;20298;-72
2022/02/14 05:56:17;;;;;;;9.00;6.83;;;3.30;99.90;;;;;;6286927;28;20277;-72
2022/02/14 05:59:22;;;;;;;9.37;7.17;;;3.40;99.90;;;;;;6287009;28;20514;-72
2022/02/14 06:02:29;;;;;;;9.43;7.07;;;3.40;99.90;;;;;;6286386;28;20288;-73
2022/02/14 06:05:34;;;;;;;11.30;7.93;;;3.40;99.90;;;;;;6287195;28;20278;-72
2022/02/14 06:08:40;;;;;;;11.73;7.30;;;3.30;99.90;;;;;;6286816;28;20297;-72
2022/02/14 06:11:45;;;;;;;9.63;7.40;;;3.30;99.90;;;;;;6262925;28;20270;-72
2022/02/14 06:14:51;;;;;;;11.83;7.30;;;3.30;99.90;;;;;;6286901;28;20291;-72
2022/02/14 06:17:57;;;;;;;9.20;7.00;;;3.30;99.90;;;;;;6285848;28;20304;-72
2022/02/14 06:21:03;;;;;;;13.80;6.87;;;3.30;99.90;;;;;;6286213;28;20312;-73
2022/02/14 06:24:08;;;;;;;17.60;6.90;;;3.30;99.90;;;;;;6285754;28;20297;-72
2022/02/14 06:27:14;;;;;;;16.47;6.80;;;3.30;99.90;;;;;;6278451;28;20274;-73
2022/02/14 06:30:22;;;;;;;14.67;7.27;;;3.30;99.90;;;;;;6287148;28;20276;-73
2022/02/14 06:33:28;;;;;;;12.90;7.77;;;3.30;99.90;;;;;;6285673;28;20306;-73
2022/02/14 06:36:34;;;;;;;13.50;6.97;;;3.30;99.90;;;;;;6285941;28;20273;-73
2022/02/14 06:39:39;;;;;;;11.17;7.30;;;3.30;99.90;;;;;;6286463;28;20301;-72
2022/02/14 06:42:47;;;;;;;9.77;6.53;;;3.20;99.90;;;;;;6284921;28;20296;-73
2022/02/14 06:45:53;;;;;;;11.40;6.90;;;3.20;99.90;;;;;;6286430;28;20274;-73
2022/02/14 06:49:06;;;;;;;15.43;7.37;;;3.20;99.90;;;;;;6285663;28;20453;-73
2022/02/14 06:52:14;;;;;;;11.70;7.23;;;3.20;99.90;;;;;;6278154;28;20296;-73
2022/02/14 06:55:19;;;;;;;10.90;7.03;;;3.20;99.90;;;;;;6286842;28;20268;-73
2022/02/14 06:58:25;;;;;;;13.53;6.97;;;3.20;99.90;;;;;;6285614;28;20298;-73
2022/02/14 07:01:30;;;;;;;11.57;7.17;;;3.20;99.90;;;;;;6285914;28;20290;-73
2022/02/14 07:04:38;;;;;;;12.23;7.07;;;3.20;99.90;;;;;;6285865;28;20294;-73
2022/02/14 07:07:43;;;;;;;11.63;6.93;;;3.20;99.90;;;;;;6285414;28;20311;-73
2022/02/14 07:10:49;;;;;;;14.90;6.87;;;3.20;99.90;;;;;;6279436;28;20274;-73
2022/02/14 07:13:54;;;;;;;14.73;7.20;;;3.10;99.90;;;;;;6285246;28;20382;-73
2022/02/14 07:17:00;;;;;;;13.93;7.00;;;3.10;99.90;;;;;;6285015;28;20440;-74
2022/02/14 07:20:09;;;;;;;12.47;7.10;;;2.90;99.90;;;;;;6268894;28;20297;-73
2022/02/14 07:23:15;;;;;;;13.87;7.00;;;2.90;99.90;;;;;;6285159;28;20315;-73
2022/02/14 07:26:21;;;;;;;10.67;7.00;;;2.90;99.90;;;;;;6286455;28;20274;-73
2022/02/14 07:29:28;;;;;;;13.27;6.47;;;2.90;99.90;;;;;;6285927;28;20298;-73
2022/02/14 07:32:34;;;;;;;15.80;6.63;;;3.00;99.90;;;;;;6285597;28;20578;-72
2022/02/14 07:35:41;;;;;;;15.40;7.33;;;3.00;99.90;;;;;;6285326;28;20272;-73
2022/02/14 07:38:46;;;;;;;11.07;7.00;;;2.90;99.90;;;;;;6285933;28;20298;-73
2022/02/14 07:41:52;;;;;;;12.97;7.40;;;3.00;99.90;;;;;;6267591;28;20293;-73
2022/02/14 07:45:02;;;;;;;12.83;7.40;;;2.90;99.90;;;;;;6267272;28;20278;-73
2022/02/14 07:48:10;;;;;;;14.63;7.03;;;3.00;99.90;;;;;;6285125;28;20315;-72
2022/02/14 07:51:19;;;;;;;15.70;7.70;;;3.00;99.90;;;;;;6285922;28;20541;-72
2022/02/14 07:54:24;;;;;;;12.87;7.70;;;3.00;99.90;;;;;;6288977;28;20320;-73
2022/02/14 07:57:31;;;;;;;9.60;6.43;;;3.00;99.90;;;;;;6289995;28;20314;-73
2022/02/14 08:00:36;;;;;;;12.53;7.57;;;3.00;99.90;;;;;;6290537;28;20273;-72
2022/02/14 08:03:43;;;;;;;11.97;7.03;;;3.00;99.90;;;;;;6289766;28;20465;-73
2022/02/14 08:07:10;;;;;;;8.60;7.00;;;3.00;99.90;;;;;;6290118;28;20277;-73
2022/02/14 08:10:17;;;;;;;14.73;7.67;;;3.10;99.90;;;;;;6289874;28;20423;-71
2022/02/14 08:13:22;;;;;;;12.53;7.30;;;3.10;99.90;;;;;;6289182;28;20603;-73
2022/02/14 08:16:28;;;;;;;16.60;6.90;;;3.10;99.90;;;;;;6289230;28;20601;-73
2022/02/14 08:19:34;;;;;;;16.53;7.50;;;3.10;99.90;;;;;;6289036;28;20609;-73
2022/02/14 08:22:45;;;;;;;15.67;7.57;;;3.00;99.90;;;;;;6288608;28;20300;-72
2022/02/14 08:25:50;;;;;;;15.33;7.03;;;3.10;99.90;;;;;;6289158;28;20271;-72
2022/02/14 08:28:55;;;;;;;13.80;7.20;;;3.00;99.90;;;;;;6289034;28;20302;-73
2022/02/14 08:32:01;;;;;;;11.13;7.30;;;3.00;99.90;;;;;;6288200;28;20277;-73
2022/02/14 08:35:07;;;;;;;9.87;7.53;;;3.10;99.90;;;;;;6288669;28;20276;-73
2022/02/14 08:38:17;;;;;;;10.83;6.83;;;3.00;99.90;;;;;;6288631;28;20427;-73
2022/02/14 08:41:23;;;;;;;12.33;7.33;;;3.00;99.90;;;;;;6289764;28;20589;-73
2022/02/14 08:44:28;;;;;;;14.17;8.27;;;3.00;99.90;;;;;;6288356;28;20297;-73
2022/02/14 08:47:34;;;;;;;14.77;7.67;;;3.10;99.90;;;;;;6288535;28;20294;-73
2022/02/14 08:50:44;;;;;;;16.23;8.30;;;3.00;99.90;;;;;;6288973;28;20271;-73
2022/02/14 08:53:53;;;;;;;18.93;8.33;;;3.10;99.90;;;;;;6288334;28;20301;-73
2022/02/14 08:56:58;;;;;;;16.43;8.03;;;3.10;99.90;;;;;;6287835;28;20455;-73
2022/02/14 09:00:05;;;;;;;20.07;8.63;;;3.10;99.90;;;;;;6288249;28;20454;-72
2022/02/14 09:03:15;;;;;;;15.80;7.90;;;3.10;99.90;;;;;;6287918;28;20296;-73
2022/02/14 09:06:22;;;;;;;17.47;8.10;;;3.10;99.90;;;;;;6287251;28;20464;-72
2022/02/14 09:09:28;;;;;;;22.50;8.17;;;3.10;99.90;;;;;;6286915;28;20299;-73
2022/02/14 09:12:36;;;;;;;11.67;8.60;;;3.20;99.90;;;;;;6283163;28;20595;-73
2022/02/14 09:15:41;;;;;;;21.13;8.10;;;3.10;99.90;;;;;;6270488;28;20273;-72
2022/02/14 09:18:46;;;;;;;18.00;8.37;;;3.20;99.90;;;;;;6269377;28;20304;-73
2022/02/14 09:21:52;;;;;;;18.53;8.63;;;3.20;99.90;;;;;;6287497;28;20305;-73
2022/02/14 09:24:59;;;;;;;18.63;8.20;;;3.20;99.90;;;;;;6287218;28;20622;-72
2022/02/14 09:28:07;;;;;;;15.00;7.83;;;3.20;99.90;;;;;;6287971;28;20302;-73
2022/02/14 09:31:13;;;;;;;11.80;8.13;;;3.20;99.90;;;;;;6287860;28;20277;-72
2022/02/14 09:34:20;;;;;;;13.97;7.70;;;3.20;99.90;;;;;;6286912;28;20314;-72
2022/02/14 09:37:25;;;;;;;12.70;7.70;;;3.10;99.90;;;;;;6287741;28;20290;-72
2022/02/14 09:40:36;;;;;;;15.03;7.67;;;3.20;99.90;;;;;;6287007;28;20265;-72
2022/02/14 09:43:47;;;;;;;14.73;7.77;;;3.20;99.90;;;;;;6286872;28;20302;-73
2022/02/14 09:46:53;;;;;;;11.13;7.77;;;3.20;99.90;;;;;;6287857;28;20278;-73
2022/02/14 09:49:58;;;;;;;11.23;8.07;;;3.20;99.90;;;;;;6287208;28;20282;-73
2022/02/14 09:53:07;;;;;;;9.83;7.10;;;3.20;99.90;;;;;;6287560;28;20609;-73
2022/02/14 09:56:22;;;;;;;12.83;7.63;;;3.30;99.90;;;;;;6287628;28;20274;-72
2022/02/14 09:59:27;;;;;;;12.33;7.33;;;3.40;99.90;;;;;;6286796;28;20596;-73
2022/02/14 10:02:32;;;;;;;9.83;7.13;;;3.30;99.90;;;;;;6286286;28;20294;-73
2022/02/14 10:05:46;;;;;;;11.10;7.37;;;3.30;99.90;;;;;;6286825;28;20553;-73
2022/02/14 10:09:07;;;;;;;9.77;7.33;;;3.30;99.90;;;;;;6286870;28;20295;-73
2022/02/14 10:12:18;;;;;;;11.27;7.43;;;3.30;99.90;;;;;;6285960;28;20306;-73
2022/02/14 10:15:24;;;;;;;14.10;7.60;;;3.20;99.90;;;;;;6287152;28;20274;-73
2022/02/14 10:18:33;;;;;;;11.07;7.23;;;3.20;99.90;;;;;;6285379;28;20298;-72
2022/02/14 10:21:56;;;;;;;15.87;7.57;;;3.30;99.90;;;;;;6272865;28;20305;-72
2022/02/14 10:25:01;;;;;;;9.23;7.10;;;3.40;99.90;;;;;;6260956;28;20299;-72
2022/02/14 10:28:23;;;;;;;9.13;7.50;;;3.40;99.90;;;;;;6261633;28;20305;-72
2022/02/14 10:31:40;;;;;;;11.13;7.50;;;3.50;99.90;;;;;;6262370;28;20278;-72
2022/02/14 10:34:50;;;;;;;10.37;7.47;;;3.50;99.90;;;;;;6261520;28;20308;-72
2022/02/14 10:38:03;;;;;;;9.40;7.10;;;3.50;99.90;;;;;;6261329;28;20303;-72
2022/02/14 10:41:12;;;;;;;8.67;6.83;;;3.50;99.90;;;;;;6261377;28;20582;-72
2022/02/14 10:47:42;;;;;;;8.43;7.23;;;3.60;99.90;;;;;;6218989;28;20302;-73
2022/02/14 10:50:59;;;;;;;8.63;6.97;;;3.60;99.90;;;;;;6261070;28;20270;-73
2022/02/14 10:54:06;;;;;;;7.70;6.90;;;3.60;99.90;;;;;;6261377;28;20302;-73
2022/02/14 10:57:28;;;;;;;10.57;7.57;;;3.70;99.90;;;;;;6260489;28;20275;-72
2022/02/14 11:00:38;;;;;;;10.70;7.50;;;3.70;99.90;;;;;;6261610;28;20281;-73
2022/02/14 11:03:47;;;;;;;9.93;7.70;;;3.70;99.90;;;;;;6260715;28;20318;-73
2022/02/14 11:06:53;;;;;;;12.37;7.30;;;3.70;99.90;;;;;;6260715;28;20295;-73
2022/02/14 11:10:00;;;;;;;11.03;7.27;;;3.80;99.90;;;;;;6259940;28;20581;-73
2022/02/14 11:13:06;;;;;;;11.87;7.60;;;3.80;99.90;;;;;;6261207;28;20464;-73
2022/02/14 11:16:14;;;;;;;12.27;7.57;;;3.70;99.90;;;;;;6262025;28;20570;-72
2022/02/14 11:19:19;;;;;;;9.67;7.33;;;3.80;99.90;;;;;;6260278;28;20598;-72
2022/02/14 11:22:29;;;;;;;8.73;7.50;;;3.80;99.90;;;;;;6278198;28;20293;-72
2022/02/14 11:25:40;;;;;;;19.13;8.50;;;3.80;99.90;;;;;;6286053;28;20289;-73
2022/02/14 11:28:54;;;;;;;13.77;7.90;;;3.80;99.90;;;;;;6288426;28;20297;-73
2022/02/14 11:32:23;;;;;;;12.80;8.20;;;3.90;99.90;;;;;;6289771;28;20279;-73
2022/02/14 11:35:28;;;;;;;13.43;8.03;;;3.90;99.90;;;;;;6291295;28;20522;-73
2022/02/14 11:38:42;;;;;;;16.37;8.30;;;4.00;99.90;;;;;;6290484;28;20565;-73
2022/02/14 11:41:48;;;;;;;8.83;7.47;;;4.00;99.90;;;;;;6290994;28;20274;-73
2022/02/14 11:45:13;;;;;;;10.03;7.60;;;4.00;99.90;;;;;;6289906;28;20302;-73
2022/02/14 11:48:28;;;;;;;9.70;7.97;;;4.00;99.90;;;;;;6290491;28;20303;-73
2022/02/14 11:51:38;;;;;;;15.50;8.40;;;4.00;99.90;;;;;;6289756;28;20282;-73
2022/02/14 11:54:48;;;;;;;11.87;7.83;;;4.00;99.90;;;;;;6289603;28;20302;-73
2022/02/14 11:57:53;;;;;;;11.93;7.80;;;4.10;99.90;;;;;;6290204;28;20302;-73
2022/02/14 12:01:06;;;;;;;14.17;8.43;;;4.10;99.90;;;;;;6290361;28;20279;-73
2022/02/14 12:04:50;;;;;;;12.80;8.00;;;4.10;99.90;;;;;;6289650;28;20572;-74
2022/02/14 12:07:56;;;;;;;11.70;7.77;;;4.10;99.90;;;;;;6277947;28;20307;-73
2022/02/14 12:11:01;;;;;;;12.63;8.03;;;4.10;99.90;;;;;;6289900;28;20269;-73
2022/02/14 12:14:17;;;;;;;12.93;8.27;;;4.20;99.90;;;;;;6289475;28;20330;-72
2022/02/14 12:21:27;;;;;;;16.03;8.47;;;4.20;99.90;;;;;;6270821;28;20299;-73
2022/02/14 12:24:53;;;;;;;12.10;8.13;;;4.20;99.90;;;;;;6289598;28;20301;-73
2022/02/14 12:27:59;;;;;;;14.33;8.37;;;4.20;99.90;;;;;;6288782;28;20310;-73
2022/02/14 12:31:06;;;;;;;13.63;8.70;;;4.30;99.90;;;;;;6289985;28;20270;-74
2022/02/14 12:34:12;;;;;;;8.87;7.90;;;4.30;99.90;;;;;;6288035;28;20614;-72
2022/02/14 12:37:21;;;;;;;15.87;8.57;;;4.30;99.90;;;;;;6289128;28;20305;-72
2022/02/14 12:40:26;;;;;;;15.07;9.10;;;4.40;99.90;;;;;;6288108;28;20450;-72
2022/02/14 12:43:38;;;;;;;14.53;8.43;;;4.30;99.90;;;;;;6288758;28;20593;-72
2022/02/14 12:46:43;;;;;;;11.60;8.47;;;4.30;99.90;;;;;;6289161;28;20291;-73
2022/02/14 12:50:11;;;;;;;10.73;8.23;;;4.30;99.90;;;;;;6289080;28;20298;-71
2022/02/14 12:53:18;;;;;;;15.37;8.37;;;4.30;99.90;;;;;;6288081;28;20305;-73
2022/02/14 12:56:25;;;;;;;13.93;8.40;;;4.30;99.90;;;;;;6289659;28;20285;-73
2022/02/14 12:59:34;;;;;;;14.47;8.90;;;4.30;99.90;;;;;;6288280;28;20303;-74
2022/02/14 13:02:40;;;;;;;12.80;8.80;;;4.30;99.90;;;;;;6287895;28;20294;-73
2022/02/14 13:05:51;;;;;;;18.97;8.93;;;4.30;99.90;;;;;;6286920;28;20305;-73
2022/02/14 13:08:58;;;;;;;11.73;8.40;;;4.20;99.90;;;;;;6288381;28;20472;-73
2022/02/14 13:12:07;;;;;;;14.43;8.87;;;4.30;99.90;;;;;;6287170;28;20280;-73
2022/02/14 13:15:13;;;;;;;20.67;8.97;;;4.30;99.90;;;;;;6287930;28;20274;-73
2022/02/14 13:18:19;;;;;;;15.33;9.47;;;4.30;99.90;;;;;;6280363;28;20303;-73
2022/02/14 13:21:24;;;;;;;18.67;8.73;;;4.20;99.90;;;;;;6288178;28;20298;-73
2022/02/14 13:24:35;;;;;;;14.83;9.40;;;4.20;99.90;;;;;;6287390;28;20314;-73
2022/02/14 13:27:42;;;;;;;20.43;9.03;;;4.30;99.90;;;;;;6287767;28;20294;-73
2022/02/14 13:30:52;;;;;;;23.67;9.63;;;4.20;99.90;;;;;;6287997;28;20278;-74
2022/02/14 13:34:01;;;;;;;18.63;9.60;;;4.30;99.90;;;;;;6287184;28;20298;-73
2022/02/14 13:37:12;;;;;;;15.33;8.50;;;4.20;99.90;;;;;;6269900;28;20276;-73
2022/02/14 13:40:24;;;;;;;17.80;8.53;;;4.20;99.90;;;;;;6280921;28;20294;-72
2022/02/14 13:43:34;;;;;;;17.10;8.23;;;4.20;99.90;;;;;;6287324;28;20293;-72
2022/02/14 13:46:39;;;;;;;17.07;9.13;;;4.20;99.90;;;;;;6286752;28;20294;-72
2022/02/14 13:49:47;;;;;;;15.57;9.20;;;4.20;99.90;;;;;;6287225;28;20314;-72
2022/02/14 13:52:52;;;;;;;14.17;9.20;;;4.20;99.90;;;;;;6286917;28;20306;-72
2022/02/14 13:56:11;;;;;;;18.47;9.73;;;4.20;99.90;;;;;;6287920;28;20277;-72
2022/02/14 13:59:19;;;;;;;14.20;8.67;;;4.20;99.90;;;;;;6286811;28;20299;-72
2022/02/14 14:02:27;;;;;;;17.10;9.30;;;4.20;99.90;;;;;;6286886;28;20589;-72
2022/02/14 14:05:49;;;;;;;17.03;9.90;;;4.20;99.90;;;;;;6286553;28;20290;-72
2022/02/14 14:08:56;;;;;;;20.43;9.70;;;4.20;99.90;;;;;;6286656;28;20306;-72
2022/02/14 14:12:11;;;;;;;20.53;9.37;;;4.20;99.90;;;;;;6279432;28;20294;-73
2022/02/14 14:15:17;;;;;;;18.07;10.03;;;4.20;99.90;;;;;;6286906;28;20270;-72
2022/02/14 14:18:26;;;;;;;14.10;9.13;;;4.20;99.90;;;;;;6268218;28;20591;-72
2022/02/14 14:21:31;;;;;;;18.77;9.30;;;4.20;99.90;;;;;;6286890;28;20306;-74
2022/02/14 14:24:36;;;;;;;18.90;9.90;;;4.20;99.90;;;;;;6286614;28;20578;-73
2022/02/14 14:27:45;;;;;;;19.03;10.60;;;4.10;99.90;;;;;;6286647;28;20574;-73
2022/02/14 14:30:51;;;;;;;13.57;9.90;;;4.10;99.90;;;;;;6286153;28;20274;-72
2022/02/14 14:33:56;;;;;;;16.00;10.20;;;4.10;99.90;;;;;;6285604;28;20306;-73
2022/02/14 14:37:01;;;;;;;20.10;10.60;;;4.10;99.90;;;;;;6285413;28;20481;-74
2022/02/14 14:40:09;;;;;;;20.77;9.93;;;4.10;99.90;;;;;;6287129;28;20438;-73
2022/02/14 14:43:18;;;;;;;18.43;9.43;;;4.10;99.90;;;;;;6285930;28;20307;-75
2022/02/14 14:46:23;;;;;;;17.00;9.90;;;4.10;99.90;;;;;;6285839;28;20297;-74
2022/02/14 14:49:28;;;;;;;17.97;9.87;;;4.10;99.90;;;;;;6285850;28;20299;-74
2022/02/14 14:52:34;;;;;;;18.90;9.90;;;4.10;99.90;;;;;;6286149;28;20302;-74
2022/02/14 14:55:40;;;;;;;21.50;10.00;;;4.00;99.90;;;;;;6286660;28;20274;-74
2022/02/14 14:58:47;;;;;;;23.03;10.27;;;4.10;99.90;;;;;;6286312;28;20295;-73
2022/02/14 15:01:52;;;;;;;21.23;9.80;;;4.10;99.90;;;;;;6285720;28;20465;-74
2022/02/14 15:04:59;;;;;;;20.67;10.50;;;4.00;99.90;;;;;;6289185;28;20269;-73
2022/02/14 15:08:06;;;;;;;20.23;9.93;;;4.00;99.90;;;;;;6290929;28;20303;-73
2022/02/14 15:11:15;;;;;;;17.93;10.00;;;4.00;99.90;;;;;;6290603;28;20271;-73
2022/02/14 15:14:22;;;;;;;17.83;9.83;;;4.10;99.90;;;;;;6291008;28;20445;-73
2022/02/14 15:17:28;;;;;;;21.47;9.70;;;4.00;99.90;;;;;;6291136;28;20318;-73
2022/02/14 15:20:35;;;;;;;18.83;9.90;;;4.00;99.90;;;;;;6291332;28;20272;-73
2022/02/14 15:23:41;;;;;;;17.67;10.37;;;4.00;99.90;;;;;;6289935;28;20471;-73
2022/02/14 15:26:50;;;;;;;18.47;10.30;;;4.00;99.90;;;;;;6290978;28;20291;-73
2022/02/14 15:29:57;;;;;;;17.67;9.83;;;4.00;99.90;;;;;;6290048;28;20579;-73
2022/02/14 15:33:03;;;;;;;20.67;9.50;;;4.00;99.90;;;;;;6290504;28;20302;-73
2022/02/14 15:36:08;;;;;;;20.73;10.17;;;4.00;99.90;;;;;;6290117;28;20272;-72
2022/02/14 15:39:15;;;;;;;20.70;10.17;;;4.00;99.90;;;;;;6282225;28;20387;-73
2022/02/14 15:42:20;;;;;;;16.00;9.67;;;4.00;99.90;;;;;;6289575;28;20569;-73
2022/02/14 15:45:27;;;;;;;18.67;11.10;;;4.00;99.90;;;;;;6290258;28;20271;-72
2022/02/14 15:48:34;;;;;;;22.63;10.50;;;4.00;99.90;;;;;;6290041;28;20302;-72
2022/02/14 15:51:41;;;;;;;20.33;10.20;;;4.00;99.90;;;;;;6290377;28;20270;-73
2022/02/14 15:54:46;;;;;;;19.60;9.43;;;4.00;99.90;;;;;;6289647;28;20378;-73
2022/02/14 15:57:52;;;;;;;18.83;10.87;;;4.00;99.90;;;;;;6289967;28;20315;-73
2022/02/14 16:00:58;;;;;;;18.07;10.23;;;4.00;99.90;;;;;;6290239;28;20446;-72
2022/02/14 16:04:05;;;;;;;21.73;10.40;;;4.00;99.90;;;;;;6288971;28;20294;-74
2022/02/14 16:07:11;;;;;;;23.40;10.57;;;4.00;99.90;;;;;;6288806;28;20299;-74
2022/02/14 16:10:16;;;;;;;21.63;10.43;;;4.00;99.90;;;;;;6283096;28;20543;-74
2022/02/14 16:13:22;;;;;;;18.20;10.10;;;4.00;99.90;;;;;;6289544;28;20301;-72
2022/02/14 16:16:30;;;;;;;24.90;10.80;;;4.00;99.90;;;;;;6290229;28;20272;-73
2022/02/14 16:19:36;;;;;;;20.00;10.70;;;4.00;99.90;;;;;;6289632;28;20466;-74
2022/02/14 16:22:43;;;;;;;21.53;11.30;;;4.00;99.90;;;;;;6289421;28;20300;-73
2022/02/14 16:25:48;;;;;;;20.07;11.03;;;4.00;99.90;;;;;;6289833;28;20327;-74
2022/02/14 16:28:54;;;;;;;17.87;10.43;;;4.00;99.90;;;;;;6289053;28;20304;-74